createdAt,value
2023-02-11T00:01:18.448Z,12.42
2023-02-11T00:03:45.152Z,11.82
2023-02-11T00:06:13.829Z,13.43
2023-02-11T00:08:47.777Z,13.03
2023-02-11T00:11:14.391Z,13.50
2023-02-11T00:13:49.130Z,13.10
2023-02-11T00:16:15.675Z,11.45
2023-02-11T00:18:42.183Z,10.95
2023-02-11T00:21:08.641Z,11.63
2023-02-11T00:23:35.153Z,11.08
2023-02-11T00:26:01.593Z,11.43
2023-02-11T00:28:28.291Z,12.03
2023-02-11T00:30:54.966Z,12.29
2023-02-11T00:33:21.503Z,12.13
2023-02-11T00:35:48.179Z,12.24
2023-02-11T00:38:14.840Z,11.26
2023-02-11T00:40:41.326Z,12.31
2023-02-11T00:43:07.843Z,17.16
2023-02-11T00:45:34.356Z,16.73
2023-02-11T00:48:00.783Z,13.90
2023-02-11T00:50:27.249Z,14.23
2023-02-11T00:52:53.706Z,14.71
2023-02-11T00:55:20.390Z,16.65
2023-02-11T00:57:46.917Z,17.67
2023-02-11T01:00:18.906Z,18.17
2023-02-11T01:02:45.453Z,18.40
2023-02-11T01:05:12.717Z,17.41
2023-02-11T01:07:39.270Z,16.11
2023-02-11T01:10:05.777Z,16.15
2023-02-11T01:12:34.537Z,15.33
2023-02-11T01:20:25.804Z,13.85
2023-02-11T01:25:32.505Z,15.40
2023-02-11T01:30:49.198Z,16.48
2023-02-11T01:33:17.093Z,16.23
2023-02-11T01:35:43.554Z,14.85
2023-02-11T01:38:09.932Z,16.32
2023-02-11T01:40:39.919Z,17.12
2023-02-11T01:43:06.501Z,15.78
2023-02-11T01:45:40.617Z,16.71
2023-02-11T01:48:13.437Z,17.15
2023-02-11T01:50:39.931Z,17.43
2023-02-11T01:53:06.417Z,17.68
2023-02-11T01:55:32.932Z,15.53
2023-02-11T01:57:59.489Z,15.49
2023-02-11T02:00:26.389Z,15.77
2023-02-11T02:02:52.930Z,15.73
2023-02-11T02:05:19.452Z,15.91
2023-02-11T02:07:45.905Z,15.62
2023-02-11T02:10:12.442Z,15.72
2023-02-11T02:12:38.962Z,15.38
2023-02-11T02:15:05.750Z,16.11
2023-02-11T02:17:36.403Z,16.10
2023-02-11T02:20:12.010Z,16.18
2023-02-11T02:22:38.537Z,16.18
2023-02-11T02:25:05.077Z,14.64
2023-02-11T02:27:31.636Z,14.18
2023-02-11T02:29:58.121Z,15.58
2023-02-11T02:32:24.579Z,14.85
2023-02-11T02:34:51.040Z,16.18
2023-02-11T02:37:17.572Z,14.45
2023-02-11T02:39:44.056Z,14.19
2023-02-11T02:42:10.493Z,13.44
2023-02-11T02:44:37.192Z,13.24
2023-02-11T02:47:23.627Z,13.00
2023-02-11T02:49:50.036Z,12.27
2023-02-11T02:52:16.404Z,11.58
2023-02-11T02:54:45.205Z,11.32
2023-02-11T02:57:14.824Z,12.37
2023-02-11T02:59:41.379Z,13.48
2023-02-11T03:02:07.884Z,13.69
2023-02-11T03:04:34.354Z,13.44
2023-02-11T03:07:00.741Z,13.86
2023-02-11T03:09:27.128Z,14.21
2023-02-11T03:12:05.178Z,13.60
2023-02-11T03:14:31.696Z,14.23
2023-02-11T03:17:00.656Z,14.27
2023-02-11T03:19:27.170Z,12.90
2023-02-11T03:21:53.598Z,12.64
2023-02-11T03:24:20.051Z,12.36
2023-02-11T03:26:46.394Z,11.35
2023-02-11T03:29:14.185Z,10.68
2023-02-11T03:31:40.772Z,9.37
2023-02-11T03:34:07.402Z,9.91
2023-02-11T03:36:33.819Z,10.72
2023-02-11T03:39:00.313Z,9.84
2023-02-11T03:41:26.713Z,9.53
2023-02-11T03:43:57.186Z,9.41
2023-02-11T03:46:23.806Z,8.77
2023-02-11T03:48:50.524Z,9.24
2023-02-11T03:51:16.979Z,9.82
2023-02-11T03:53:43.308Z,10.29
2023-02-11T03:56:09.666Z,11.60
2023-02-11T03:58:36.026Z,13.67
2023-02-11T04:01:02.384Z,12.66
2023-02-11T04:03:28.857Z,11.69
2023-02-11T04:05:55.251Z,11.34
2023-02-11T04:08:21.593Z,10.66
2023-02-11T04:10:47.913Z,10.41
2023-02-11T04:13:14.437Z,10.40
2023-02-11T04:15:40.841Z,10.30
2023-02-11T04:18:07.166Z,11.52
2023-02-11T04:20:33.615Z,12.44
2023-02-11T04:22:59.961Z,12.58
2023-02-11T04:25:26.350Z,11.81
2023-02-11T04:27:52.687Z,11.24
2023-02-11T04:30:19.089Z,11.16
2023-02-11T04:32:45.412Z,10.06
2023-02-11T04:35:11.739Z,9.85
2023-02-11T04:37:38.080Z,9.29
2023-02-11T04:40:04.586Z,9.61
2023-02-11T04:42:30.931Z,10.44
2023-02-11T04:44:57.256Z,10.28
2023-02-11T04:47:23.589Z,10.11
2023-02-11T04:49:49.960Z,10.07
2023-02-11T04:52:16.312Z,10.81
2023-02-11T04:54:42.725Z,11.07
2023-02-11T04:57:09.091Z,11.92
2023-02-11T04:59:35.443Z,11.67
2023-02-11T05:02:03.341Z,12.33
2023-02-11T05:04:32.300Z,12.45
2023-02-11T05:09:39.026Z,11.84
2023-02-11T05:12:05.343Z,11.54
2023-02-11T05:14:31.675Z,13.66
2023-02-11T05:16:58.147Z,25.36
2023-02-11T05:19:24.511Z,14.97
2023-02-11T05:22:02.229Z,13.56
2023-02-11T05:24:29.598Z,10.75
2023-02-11T05:26:55.922Z,10.99
2023-02-11T05:29:22.248Z,9.22
2023-02-11T05:31:48.762Z,9.86
2023-02-11T05:34:15.087Z,9.68
2023-02-11T05:36:41.392Z,11.44
2023-02-11T05:39:07.718Z,12.57
2023-02-11T05:41:46.201Z,12.21
2023-02-11T05:44:13.156Z,11.97
2023-02-11T05:46:39.668Z,11.24
2023-02-11T05:49:06.019Z,10.91
2023-02-11T05:51:32.496Z,10.74
2023-02-11T05:54:01.640Z,10.79
2023-02-11T05:56:28.095Z,11.34
2023-02-11T05:58:54.587Z,11.26
2023-02-11T06:01:21.062Z,11.11
2023-02-11T06:03:47.674Z,10.51
2023-02-11T06:06:14.212Z,11.28
2023-02-11T06:08:40.734Z,10.62
2023-02-11T06:11:07.260Z,10.57
2023-02-11T06:13:33.663Z,11.14
2023-02-11T06:16:00.210Z,11.80
2023-02-11T06:18:26.760Z,11.84
2023-02-11T06:20:53.114Z,11.38
2023-02-11T06:23:19.543Z,11.01
2023-02-11T06:26:03.091Z,10.88
2023-02-11T06:28:29.537Z,10.28
2023-02-11T06:30:55.998Z,10.79
2023-02-11T06:33:22.454Z,10.42
2023-02-11T06:35:50.081Z,12.00
2023-02-11T06:38:16.758Z,11.81
2023-02-11T06:40:43.271Z,11.17
2023-02-11T06:43:09.789Z,11.61
2023-02-11T06:45:36.436Z,14.28
2023-02-11T06:48:02.997Z,17.75
2023-02-11T06:50:29.483Z,16.67
2023-02-11T06:52:55.862Z,13.63
2023-02-11T06:55:22.236Z,11.44
2023-02-11T06:57:50.822Z,11.13
2023-02-11T07:00:17.315Z,10.95
2023-02-11T07:02:43.700Z,10.37
2023-02-11T07:05:10.099Z,10.43
2023-02-11T07:07:36.603Z,10.91
2023-02-11T07:10:03.444Z,10.35
2023-02-11T07:12:29.834Z,10.41
2023-02-11T07:14:56.361Z,10.86
2023-02-11T07:17:22.835Z,11.14
2023-02-11T07:19:49.292Z,10.85
2023-02-11T07:22:21.006Z,11.06
2023-02-11T07:24:49.762Z,11.24
2023-02-11T07:27:16.252Z,11.37
2023-02-11T07:29:45.147Z,11.53
2023-02-11T07:32:11.516Z,11.23
2023-02-11T07:34:38.995Z,12.08
2023-02-11T07:37:05.583Z,12.40
2023-02-11T07:39:32.102Z,13.01
2023-02-11T07:41:58.598Z,12.42
2023-02-11T07:44:25.107Z,12.33
2023-02-11T07:46:51.654Z,11.42
2023-02-11T07:49:18.094Z,11.05
2023-02-11T07:51:44.616Z,10.98
2023-02-11T07:54:11.100Z,10.61
2023-02-11T07:56:37.610Z,10.34
2023-02-11T07:59:04.085Z,10.89
2023-02-11T08:01:30.589Z,10.35
2023-02-11T08:04:01.576Z,10.76
2023-02-11T08:06:28.389Z,10.10
2023-02-11T08:08:54.998Z,10.64
2023-02-11T08:11:21.534Z,10.83
2023-02-11T08:13:48.148Z,10.91
2023-02-11T08:16:14.743Z,11.25
2023-02-11T08:18:41.314Z,11.28
2023-02-11T08:21:07.859Z,11.33
2023-02-11T08:23:34.336Z,11.19
2023-02-11T08:26:00.864Z,11.20
2023-02-11T08:28:27.490Z,11.38
2023-02-11T08:30:54.063Z,11.75
2023-02-11T08:33:20.502Z,12.40
2023-02-11T08:35:47.028Z,12.13
2023-02-11T08:38:13.519Z,12.45
2023-02-11T08:40:39.991Z,12.89
2023-02-11T08:43:08.187Z,12.84
2023-02-11T08:45:35.507Z,13.89
2023-02-11T08:50:52.624Z,13.17
2023-02-11T08:58:40.731Z,15.09
2023-02-11T09:01:07.258Z,14.85
2023-02-11T09:03:33.766Z,14.65
2023-02-11T09:06:00.289Z,14.76
2023-02-11T09:08:27.764Z,13.03
2023-02-11T09:10:54.283Z,13.38
2023-02-11T09:13:26.715Z,13.52
2023-02-11T09:15:53.242Z,13.56
2023-02-11T09:21:03.837Z,13.45
2023-02-11T09:23:30.401Z,13.70
2023-02-11T09:25:56.950Z,14.90
2023-02-11T09:28:31.827Z,15.41
2023-02-11T09:30:58.411Z,14.87
2023-02-11T09:33:24.991Z,14.15
2023-02-11T09:35:51.489Z,13.79
2023-02-11T09:38:18.368Z,14.40
2023-02-11T09:40:45.273Z,15.01
2023-02-11T09:43:13.385Z,14.48
2023-02-11T09:45:39.864Z,14.31
2023-02-11T09:48:06.982Z,14.33
2023-02-11T09:50:40.917Z,14.25
2023-02-11T09:53:07.387Z,15.01
2023-02-11T09:55:33.864Z,14.89
2023-02-11T09:58:00.358Z,13.74
2023-02-11T10:00:26.757Z,14.33
2023-02-11T10:02:53.443Z,14.65
2023-02-11T10:05:19.856Z,15.19
2023-02-11T10:07:46.336Z,14.88
2023-02-11T10:10:12.787Z,14.82
2023-02-11T10:12:39.247Z,15.07
2023-02-11T10:15:05.741Z,15.52
2023-02-11T10:17:32.250Z,16.30
2023-02-11T10:19:58.707Z,15.83
2023-02-11T10:22:25.293Z,15.05
2023-02-11T10:24:59.170Z,15.84
2023-02-11T10:27:25.560Z,15.93
2023-02-11T10:29:51.964Z,15.77
2023-02-11T10:32:18.462Z,16.38
2023-02-11T10:34:44.852Z,16.40
2023-02-11T10:37:11.318Z,16.08
2023-02-11T10:39:37.715Z,16.14
2023-02-11T10:42:04.457Z,16.83
2023-02-11T10:44:33.119Z,16.89
2023-02-11T10:47:00.867Z,19.51
2023-02-11T10:49:27.403Z,24.32
2023-02-11T10:51:53.837Z,24.89
2023-02-11T10:54:20.480Z,23.86
2023-02-11T10:56:46.978Z,24.76
2023-02-11T10:59:24.066Z,25.05
2023-02-11T11:01:50.655Z,24.80
2023-02-11T11:04:18.450Z,23.59
2023-02-11T11:06:44.959Z,23.68
2023-02-11T11:09:12.306Z,23.60
2023-02-11T11:11:38.790Z,24.53
2023-02-11T11:14:05.300Z,24.12
2023-02-11T11:16:31.760Z,24.52
2023-02-11T11:18:58.450Z,24.77
2023-02-11T11:21:24.900Z,24.62
2023-02-11T11:26:31.628Z,25.51
2023-02-11T11:28:58.063Z,23.77
2023-02-11T11:31:27.338Z,21.79
2023-02-11T11:33:54.379Z,20.89
2023-02-11T11:36:20.883Z,21.01
2023-02-11T11:38:56.473Z,21.78
2023-02-11T11:41:22.873Z,22.04
2023-02-11T11:43:49.434Z,24.25
2023-02-11T11:46:15.979Z,22.87
2023-02-11T11:48:42.456Z,23.07
2023-02-11T11:51:08.962Z,22.91
2023-02-11T11:53:35.596Z,24.30
2023-02-11T11:56:02.084Z,23.45
2023-02-11T11:58:28.529Z,23.70
2023-02-11T12:00:55.038Z,22.92
2023-02-11T12:03:21.789Z,23.11
2023-02-11T12:05:49.003Z,22.68
2023-02-11T12:08:18.023Z,22.48
2023-02-11T12:10:56.778Z,21.76
2023-02-11T12:13:23.374Z,22.03
2023-02-11T12:15:49.892Z,22.92
2023-02-11T12:18:16.427Z,23.38
2023-02-11T12:20:42.946Z,24.44
2023-02-11T12:23:09.433Z,25.02
2023-02-11T12:25:35.846Z,29.07
2023-02-11T12:28:02.431Z,32.21
2023-02-11T12:30:29.028Z,33.40
2023-02-11T12:32:55.539Z,34.95
2023-02-11T12:35:21.975Z,35.41
2023-02-11T12:37:48.361Z,34.75
2023-02-11T12:40:14.736Z,34.77
2023-02-11T12:42:42.155Z,36.96
2023-02-11T12:45:08.631Z,37.45
2023-02-11T12:47:36.232Z,38.90
2023-02-11T12:50:08.087Z,41.29
2023-02-11T12:52:34.818Z,41.42
2023-02-11T12:55:01.230Z,41.80
2023-02-11T12:57:27.949Z,40.98
2023-02-11T12:59:54.525Z,39.50
2023-02-11T13:02:32.292Z,38.62
2023-02-11T13:04:59.233Z,36.59
2023-02-11T13:07:25.750Z,37.66
2023-02-11T13:09:59.569Z,38.51
2023-02-11T13:12:26.135Z,42.10
2023-02-11T13:14:52.701Z,43.72
2023-02-11T13:17:19.286Z,42.27
2023-02-11T13:19:55.183Z,42.77
2023-02-11T13:22:21.603Z,41.64
2023-02-11T13:25:01.242Z,40.22
2023-02-11T13:27:27.790Z,37.99
2023-02-11T13:29:54.360Z,36.80
2023-02-11T13:32:21.160Z,36.91
2023-02-11T13:34:47.621Z,35.41
2023-02-11T13:37:14.101Z,34.30
2023-02-11T13:39:40.582Z,34.06
2023-02-11T13:42:07.078Z,34.88
2023-02-11T13:44:33.612Z,35.45
2023-02-11T13:47:00.130Z,38.11
2023-02-11T13:49:26.649Z,39.08
2023-02-11T13:51:53.151Z,37.52
2023-02-11T13:54:20.678Z,38.27
2023-02-11T13:56:47.310Z,38.40
2023-02-11T13:59:13.836Z,38.02
2023-02-11T14:01:40.343Z,38.69
2023-02-11T14:04:06.847Z,37.37
2023-02-11T14:06:33.346Z,36.86
2023-02-11T14:08:59.849Z,37.11
2023-02-11T14:11:26.352Z,37.59
2023-02-11T14:13:54.101Z,37.27
2023-02-11T14:16:36.395Z,36.68
2023-02-11T14:19:03.695Z,35.97
2023-02-11T14:21:30.136Z,36.14
2023-02-11T14:23:56.792Z,36.52
2023-02-11T14:26:23.227Z,36.24
2023-02-11T14:28:49.700Z,36.93
2023-02-11T14:31:16.231Z,37.14
2023-02-11T14:33:42.823Z,36.94
2023-02-11T14:36:09.324Z,37.61
2023-02-11T14:38:36.142Z,37.58
2023-02-11T14:41:02.669Z,35.42
2023-02-11T14:43:29.701Z,36.40
2023-02-11T14:45:56.376Z,35.97
2023-02-11T14:48:23.213Z,37.09
2023-02-11T14:50:50.893Z,36.17
2023-02-11T14:53:17.608Z,35.83
2023-02-11T14:55:44.128Z,35.97
2023-02-11T14:58:10.695Z,34.24
2023-02-11T15:00:37.179Z,37.74
2023-02-11T15:03:03.796Z,39.19
2023-02-11T15:05:30.315Z,36.72
2023-02-11T15:07:58.089Z,38.36
2023-02-11T15:10:24.537Z,39.60
2023-02-11T15:12:51.078Z,39.64
2023-02-11T15:15:17.604Z,38.99
2023-02-11T15:17:44.143Z,38.61
2023-02-11T15:20:16.429Z,38.00
2023-02-11T15:22:42.945Z,37.74
2023-02-11T15:25:09.483Z,38.92
2023-02-11T15:27:35.916Z,39.15
2023-02-11T15:30:02.578Z,38.82
2023-02-11T15:32:31.276Z,39.79
2023-02-11T15:34:57.934Z,39.93
2023-02-11T15:37:24.521Z,41.06
2023-02-11T15:39:51.048Z,40.90
2023-02-11T15:42:17.631Z,38.94
2023-02-11T15:44:44.138Z,38.40
2023-02-11T15:47:10.659Z,37.14
2023-02-11T15:49:37.261Z,37.00
2023-02-11T15:52:03.675Z,37.31
2023-02-11T15:54:31.755Z,36.94
2023-02-11T15:56:58.302Z,36.76
2023-02-11T15:59:24.767Z,36.81
2023-02-11T16:01:51.305Z,35.14
2023-02-11T16:04:17.880Z,36.61
2023-02-11T16:06:45.619Z,35.39
2023-02-11T16:09:12.002Z,35.62
2023-02-11T16:11:38.408Z,33.95
2023-02-11T16:14:55.764Z,34.14
2023-02-11T16:16:56.189Z,34.21
2023-02-11T16:19:25.323Z,31.93
2023-02-11T16:21:52.235Z,32.75
2023-02-11T16:24:18.867Z,32.36
2023-02-11T16:26:49.690Z,32.10
2023-02-11T16:29:20.244Z,33.40
2023-02-11T16:32:09.361Z,32.19
2023-02-11T16:34:33.931Z,32.62
2023-02-11T16:37:01.423Z,32.29
2023-02-11T16:39:28.098Z,31.68
2023-02-11T16:42:02.244Z,32.31
2023-02-11T16:44:28.775Z,32.48
2023-02-11T16:46:55.609Z,32.28
2023-02-11T16:49:22.180Z,32.33
2023-02-11T16:51:48.740Z,32.29
2023-02-11T16:54:15.132Z,32.13
2023-02-11T16:56:42.596Z,30.65
2023-02-11T16:59:09.120Z,30.76
2023-02-11T17:01:35.605Z,31.22
2023-02-11T17:04:02.189Z,30.53
2023-02-11T17:06:29.779Z,30.34
2023-02-11T17:08:56.316Z,30.96
2023-02-11T17:11:22.780Z,30.48
2023-02-11T17:13:49.253Z,31.48
2023-02-11T17:16:15.768Z,31.41
2023-02-11T17:18:42.326Z,32.34
2023-02-11T17:21:08.784Z,39.95
2023-02-11T17:23:35.340Z,33.40
2023-02-11T17:26:01.880Z,31.48
2023-02-11T17:28:28.390Z,30.29
2023-02-11T17:30:55.026Z,29.34
2023-02-11T17:33:21.615Z,28.27
2023-02-11T17:35:51.127Z,28.05
2023-02-11T17:38:17.839Z,33.00
2023-02-11T17:40:44.338Z,32.75
2023-02-11T17:43:11.015Z,33.36
2023-02-11T17:45:37.581Z,32.21
2023-02-11T17:48:04.198Z,55.41
2023-02-11T17:50:30.683Z,38.53
2023-02-11T17:52:57.206Z,33.61
2023-02-11T17:55:23.670Z,31.97
2023-02-11T17:57:50.351Z,31.19
2023-02-11T18:00:17.785Z,34.61
2023-02-11T18:02:44.421Z,32.73
2023-02-11T18:05:13.730Z,30.23
2023-02-11T18:07:40.195Z,29.38
2023-02-11T18:10:06.685Z,26.58
2023-02-11T18:12:33.331Z,30.80
2023-02-11T18:14:59.812Z,32.25
2023-02-11T18:17:26.293Z,31.60
2023-02-11T18:19:52.729Z,30.00
2023-02-11T18:22:19.223Z,26.56
2023-02-11T18:24:45.622Z,24.13
2023-02-11T18:27:12.057Z,21.80
2023-02-11T18:29:38.460Z,19.96
2023-02-11T18:32:05.008Z,19.80
2023-02-11T18:34:31.516Z,20.96
2023-02-11T18:36:59.006Z,23.26
2023-02-11T18:39:25.770Z,26.68
2023-02-11T18:41:52.208Z,25.54
2023-02-11T18:44:18.615Z,21.54
2023-02-11T18:46:45.270Z,19.52
2023-02-11T18:49:11.662Z,19.89
2023-02-11T18:51:38.102Z,19.61
2023-02-11T18:54:04.485Z,19.49
2023-02-11T18:56:30.897Z,19.29
2023-02-11T18:58:57.318Z,23.63
2023-02-11T19:01:24.203Z,66.34
2023-02-11T19:03:50.801Z,55.41
2023-02-11T19:06:17.218Z,37.82
2023-02-11T19:08:43.599Z,37.87
2023-02-11T19:11:10.085Z,28.90
2023-02-11T19:13:37.474Z,22.51
2023-02-11T19:16:03.878Z,20.55
2023-02-11T19:18:30.320Z,19.52
2023-02-11T19:20:59.550Z,18.77
2023-02-11T19:23:25.950Z,17.26
2023-02-11T19:25:52.594Z,20.62
2023-02-11T19:28:19.253Z,20.87
2023-02-11T19:30:45.943Z,19.86
2023-02-11T19:33:12.445Z,21.82
2023-02-11T19:35:38.858Z,20.17
2023-02-11T19:38:05.654Z,17.45
2023-02-11T19:40:32.116Z,16.51
2023-02-11T19:42:58.568Z,16.35
2023-02-11T19:45:26.944Z,27.83
2023-02-11T19:47:53.609Z,44.06
2023-02-11T19:50:22.039Z,31.50
2023-02-11T19:52:48.476Z,19.78
2023-02-11T19:55:17.215Z,16.03
2023-02-11T19:57:43.695Z,18.82
2023-02-11T20:00:10.113Z,23.84
2023-02-11T20:02:36.506Z,25.66
2023-02-11T20:05:02.945Z,31.00
2023-02-11T20:07:29.313Z,37.59
2023-02-11T20:09:55.954Z,34.92
2023-02-11T20:12:22.386Z,30.64
2023-02-11T20:14:53.057Z,43.18
2023-02-11T20:17:19.477Z,30.46
2023-02-11T20:19:45.879Z,33.43
2023-02-11T20:22:14.975Z,36.08
2023-02-11T20:24:41.343Z,34.41
2023-02-11T20:27:07.747Z,36.92
2023-02-11T20:29:34.179Z,37.16
2023-02-11T20:32:00.866Z,32.73
2023-02-11T20:34:27.359Z,31.18
2023-02-11T20:36:53.793Z,29.42
2023-02-11T20:39:20.252Z,29.18
2023-02-11T20:41:46.782Z,27.09
2023-02-11T20:44:13.249Z,24.25
2023-02-11T20:46:39.761Z,23.99
2023-02-11T20:49:06.192Z,22.25
2023-02-11T20:51:32.603Z,23.46
2023-02-11T20:53:58.944Z,26.10
2023-02-11T20:56:25.397Z,28.87
2023-02-11T20:58:53.105Z,29.01
2023-02-11T21:01:19.494Z,30.33
2023-02-11T21:03:45.938Z,33.57
2023-02-11T21:06:12.355Z,33.22
2023-02-11T21:08:38.752Z,33.06
2023-02-11T21:11:05.221Z,32.67
2023-02-11T21:13:31.686Z,32.85
2023-02-11T21:15:58.606Z,27.94
2023-02-11T21:18:27.367Z,19.82
2023-02-11T21:20:53.797Z,18.74
2023-02-11T21:23:20.235Z,16.45
2023-02-11T21:25:46.663Z,13.97
2023-02-11T21:28:13.108Z,13.91
2023-02-11T21:30:39.579Z,13.49
2023-02-11T21:33:05.984Z,13.45
2023-02-11T21:35:32.432Z,13.02
2023-02-11T21:38:00.099Z,13.32
2023-02-11T21:40:26.480Z,13.29
2023-02-11T21:42:52.844Z,12.43
2023-02-11T21:45:19.340Z,12.55
2023-02-11T21:47:54.012Z,11.67
2023-02-11T21:50:20.474Z,11.87
2023-02-11T21:52:48.987Z,12.85
2023-02-11T21:55:15.385Z,13.75
2023-02-11T21:57:41.923Z,14.92
2023-02-11T22:00:08.425Z,15.34
2023-02-11T22:02:34.881Z,15.53
2023-02-11T22:05:01.465Z,16.40
2023-02-11T22:07:27.879Z,15.36
2023-02-11T22:09:54.266Z,14.51
2023-02-11T22:12:21.082Z,14.61
2023-02-11T22:14:47.453Z,14.81
2023-02-11T22:17:14.404Z,15.55
2023-02-11T22:19:40.882Z,17.24
2023-02-11T22:22:07.270Z,22.94
2023-02-11T22:24:33.816Z,35.70
2023-02-11T22:27:01.522Z,29.96
2023-02-11T22:29:27.952Z,28.56
2023-02-11T22:31:54.510Z,30.16
2023-02-11T22:34:20.978Z,30.70
2023-02-11T22:36:47.463Z,25.03
2023-02-11T22:39:13.889Z,23.69
2023-02-11T22:41:40.421Z,22.42
2023-02-11T22:44:12.575Z,20.91
2023-02-11T22:46:39.026Z,17.96
2023-02-11T22:49:05.462Z,16.40
2023-02-11T22:51:33.298Z,17.58
2023-02-11T22:54:01.791Z,18.12
2023-02-11T22:56:28.248Z,16.68
2023-02-11T22:58:54.714Z,16.62
2023-02-11T23:01:21.365Z,17.34
2023-02-11T23:03:47.767Z,17.91
2023-02-11T23:06:14.217Z,17.38
2023-02-11T23:08:40.820Z,16.38
2023-02-11T23:11:07.263Z,14.81
2023-02-11T23:13:33.762Z,14.66
2023-02-11T23:16:00.450Z,16.54
2023-02-11T23:18:28.327Z,18.63
2023-02-11T23:20:54.770Z,17.73
2023-02-11T23:23:21.381Z,14.95
2023-02-11T23:25:47.836Z,12.06
2023-02-11T23:28:14.344Z,11.15
2023-02-11T23:30:40.765Z,10.64
2023-02-11T23:33:07.217Z,11.85
2023-02-11T23:35:33.675Z,11.62
2023-02-11T23:38:00.072Z,11.83
2023-02-11T23:40:26.508Z,13.04
2023-02-11T23:42:52.930Z,17.32
2023-02-11T23:45:19.415Z,17.85
2023-02-11T23:47:45.913Z,18.55
2023-02-11T23:50:12.400Z,16.21
2023-02-11T23:52:39.017Z,17.39
2023-02-11T23:55:05.382Z,18.02
2023-02-11T23:57:31.836Z,18.72
2023-02-11T23:59:58.215Z,19.85
